createdAt,value
2019-01-29T00:00:33.397Z,989.27
2019-01-29T00:01:33.410Z,989.31
2019-01-29T00:02:33.382Z,989.32
2019-01-29T00:03:33.391Z,989.32
2019-01-29T00:04:33.394Z,989.34
2019-01-29T00:05:33.391Z,989.29
2019-01-29T00:06:33.330Z,989.32
2019-01-29T00:07:33.319Z,989.32
2019-01-29T00:08:33.347Z,989.36
2019-01-29T00:09:33.313Z,989.41
2019-01-29T00:10:33.301Z,989.40
2019-01-29T00:11:33.294Z,989.40
2019-01-29T00:12:34.719Z,989.44
2019-01-29T00:13:33.262Z,989.46
2019-01-29T00:14:33.282Z,989.42
2019-01-29T00:15:33.243Z,989.43
2019-01-29T00:16:33.242Z,989.45
2019-01-29T00:17:33.210Z,989.46
2019-01-29T00:18:33.201Z,989.51
2019-01-29T00:19:33.204Z,989.51
2019-01-29T00:20:33.206Z,989.52
2019-01-29T00:21:33.185Z,989.49
2019-01-29T00:22:33.718Z,989.52
2019-01-29T00:23:33.163Z,989.51
2019-01-29T00:24:33.156Z,989.58
2019-01-29T00:25:33.160Z,989.60
2019-01-29T00:26:33.113Z,989.58
2019-01-29T00:27:33.106Z,989.63
2019-01-29T00:28:33.089Z,989.63
2019-01-29T00:29:33.086Z,989.62
2019-01-29T00:30:33.084Z,989.71
2019-01-29T00:31:33.082Z,989.68
2019-01-29T00:32:33.042Z,989.75
2019-01-29T00:33:33.049Z,989.73
2019-01-29T00:34:33.060Z,989.78
2019-01-29T00:35:33.029Z,989.78
2019-01-29T00:36:33.039Z,989.80
2019-01-29T00:37:33.014Z,989.79
2019-01-29T00:38:32.996Z,989.85
2019-01-29T00:39:32.991Z,989.85
2019-01-29T00:40:32.959Z,989.85
2019-01-29T00:41:32.988Z,989.84
2019-01-29T00:42:32.951Z,989.92
2019-01-29T00:43:32.941Z,989.91
2019-01-29T00:44:32.925Z,989.90
2019-01-29T00:45:32.948Z,989.87
2019-01-29T00:46:32.932Z,989.82
2019-01-29T00:47:32.900Z,989.92
2019-01-29T00:48:32.882Z,989.87
2019-01-29T00:49:32.899Z,989.93
2019-01-29T00:50:32.852Z,989.95
2019-01-29T00:51:32.839Z,989.99
2019-01-29T00:52:32.867Z,989.95
2019-01-29T00:53:32.841Z,989.98
2019-01-29T00:54:32.815Z,990.10
2019-01-29T00:55:32.813Z,990.09
2019-01-29T00:56:32.828Z,990.11
2019-01-29T00:57:32.777Z,990.13
2019-01-29T00:58:32.766Z,990.14
2019-01-29T00:59:32.753Z,990.14
2019-01-29T01:00:32.743Z,990.20
2019-01-29T01:01:32.734Z,990.25
2019-01-29T01:02:32.749Z,990.25
2019-01-29T01:03:32.710Z,990.31
2019-01-29T01:04:32.707Z,990.30
2019-01-29T01:05:32.700Z,990.31
2019-01-29T01:06:32.702Z,990.30
2019-01-29T01:07:32.706Z,990.32
2019-01-29T01:08:32.679Z,990.30
2019-01-29T01:09:32.650Z,990.39
2019-01-29T01:10:32.646Z,990.36
2019-01-29T01:11:32.622Z,990.39
2019-01-29T01:12:32.619Z,990.43
2019-01-29T01:13:32.641Z,990.43
2019-01-29T01:14:32.609Z,990.49
2019-01-29T01:15:32.592Z,990.39
2019-01-29T01:16:32.584Z,990.45
2019-01-29T01:17:32.558Z,990.44
2019-01-29T01:18:32.565Z,990.47
2019-01-29T01:19:32.564Z,990.50
2019-01-29T01:20:32.532Z,990.45
2019-01-29T01:21:32.516Z,990.50
2019-01-29T01:22:32.497Z,990.57
2019-01-29T01:23:32.498Z,990.55
2019-01-29T01:24:32.505Z,990.56
2019-01-29T01:25:32.486Z,990.57
2019-01-29T01:26:32.474Z,990.62
2019-01-29T01:27:32.459Z,990.63
2019-01-29T01:28:32.446Z,990.64
2019-01-29T01:29:32.469Z,990.67
2019-01-29T01:30:32.414Z,990.72
2019-01-29T01:31:32.402Z,990.70
2019-01-29T01:32:32.391Z,990.73
2019-01-29T01:33:32.396Z,990.76
2019-01-29T01:34:32.387Z,990.69
2019-01-29T01:35:32.407Z,990.71
2019-01-29T01:36:32.354Z,990.73
2019-01-29T01:37:32.387Z,990.78
2019-01-29T01:38:32.336Z,990.77
2019-01-29T01:39:32.334Z,990.80
2019-01-29T01:40:32.345Z,990.76
2019-01-29T01:41:32.291Z,990.85
2019-01-29T01:42:32.284Z,990.84
2019-01-29T01:43:32.281Z,990.83
2019-01-29T01:44:32.266Z,990.87
2019-01-29T01:45:32.261Z,990.90
2019-01-29T01:46:32.281Z,990.89
2019-01-29T01:47:32.247Z,990.92
2019-01-29T01:48:32.236Z,990.93
2019-01-29T01:49:32.219Z,990.97
2019-01-29T01:50:32.209Z,991.01
2019-01-29T01:51:32.226Z,990.96
2019-01-29T01:52:32.188Z,991.02
2019-01-29T01:53:32.163Z,991.01
2019-01-29T01:54:32.161Z,991.02
2019-01-29T01:55:32.139Z,991.09
2019-01-29T01:56:32.136Z,991.08
2019-01-29T01:57:32.186Z,991.08
2019-01-29T01:58:32.119Z,991.09
2019-01-29T01:59:32.174Z,991.12
2019-01-29T02:00:32.103Z,991.14
2019-01-29T02:01:32.077Z,991.17
2019-01-29T02:02:32.093Z,991.23
2019-01-29T02:03:32.093Z,991.20
2019-01-29T02:04:32.099Z,991.28
2019-01-29T02:05:32.039Z,991.27
2019-01-29T02:06:32.040Z,991.32
2019-01-29T02:07:32.014Z,991.35
2019-01-29T02:08:32.001Z,991.35
2019-01-29T02:09:32.032Z,991.36
2019-01-29T02:10:31.998Z,991.34
2019-01-29T02:11:31.984Z,991.31
2019-01-29T02:12:31.978Z,991.33
2019-01-29T02:13:31.951Z,991.37
2019-01-29T02:14:31.975Z,991.37
2019-01-29T02:15:31.931Z,991.34
2019-01-29T02:16:31.936Z,991.38
2019-01-29T02:17:31.914Z,991.45
2019-01-29T02:18:31.905Z,991.38
2019-01-29T02:19:31.902Z,991.50
2019-01-29T02:20:31.939Z,991.45
2019-01-29T02:21:31.870Z,991.50
2019-01-29T02:22:31.894Z,991.52
2019-01-29T02:23:31.864Z,991.59
2019-01-29T02:24:31.888Z,991.52
2019-01-29T02:25:31.817Z,991.57
2019-01-29T02:26:31.818Z,991.64
2019-01-29T02:27:31.806Z,991.64
2019-01-29T02:28:31.789Z,991.63
2019-01-29T02:29:31.787Z,991.65
2019-01-29T02:30:31.809Z,991.61
2019-01-29T02:31:31.765Z,991.65
2019-01-29T02:32:31.755Z,991.65
2019-01-29T02:33:31.731Z,991.67
2019-01-29T02:34:31.719Z,991.68
2019-01-29T02:35:31.711Z,991.75
2019-01-29T02:36:31.718Z,991.77
2019-01-29T02:37:31.695Z,991.81
2019-01-29T02:38:31.699Z,991.81
2019-01-29T02:39:31.673Z,991.80
2019-01-29T02:40:31.659Z,991.74
2019-01-29T02:41:31.674Z,991.84
2019-01-29T02:42:31.660Z,991.81
2019-01-29T02:43:31.634Z,991.89
2019-01-29T02:44:31.617Z,991.85
2019-01-29T02:45:31.611Z,991.92
2019-01-29T02:46:31.617Z,991.87
2019-01-29T02:47:31.592Z,991.87
2019-01-29T02:48:31.613Z,991.84
2019-01-29T02:49:31.571Z,991.90
2019-01-29T02:50:31.603Z,991.97
2019-01-29T02:51:31.559Z,991.91
2019-01-29T02:52:31.568Z,991.97
2019-01-29T02:53:31.525Z,992.00
2019-01-29T02:54:31.504Z,992.04
2019-01-29T02:55:31.535Z,992.11
2019-01-29T02:56:31.491Z,992.09
2019-01-29T02:57:31.486Z,992.13
2019-01-29T02:58:31.494Z,992.16
2019-01-29T02:59:31.466Z,992.13
2019-01-29T03:00:31.435Z,992.14
2019-01-29T03:01:31.463Z,992.18
2019-01-29T03:02:31.429Z,992.28
2019-01-29T03:03:31.441Z,992.24
2019-01-29T03:04:31.402Z,992.25
2019-01-29T03:05:31.378Z,992.27
2019-01-29T03:06:31.409Z,992.31
2019-01-29T03:07:31.363Z,992.28
2019-01-29T03:08:31.355Z,992.36
2019-01-29T03:09:31.376Z,992.33
2019-01-29T03:10:31.354Z,992.32
2019-01-29T03:11:31.321Z,992.38
2019-01-29T03:12:31.358Z,992.43
2019-01-29T03:13:31.315Z,992.44
2019-01-29T03:14:31.303Z,992.43
2019-01-29T03:15:31.287Z,992.49
2019-01-29T03:16:31.286Z,992.54
2019-01-29T03:17:31.273Z,992.54
2019-01-29T03:18:31.358Z,992.52
2019-01-29T03:19:31.258Z,992.62
2019-01-29T03:20:31.235Z,992.56
2019-01-29T03:21:31.917Z,992.54
2019-01-29T03:22:31.217Z,992.57
2019-01-29T03:23:31.208Z,992.58
2019-01-29T03:24:31.210Z,992.67
2019-01-29T03:25:31.175Z,992.69
2019-01-29T03:26:31.187Z,992.69
2019-01-29T03:27:31.167Z,992.69
2019-01-29T03:28:31.155Z,992.69
2019-01-29T03:29:31.163Z,992.67
2019-01-29T03:30:31.125Z,992.72
2019-01-29T03:31:31.115Z,992.79
2019-01-29T03:32:31.093Z,992.83
2019-01-29T03:33:31.097Z,992.83
2019-01-29T03:34:31.107Z,992.88
2019-01-29T03:35:31.102Z,992.82
2019-01-29T03:36:31.060Z,992.88
2019-01-29T03:37:31.066Z,992.91
2019-01-29T03:38:31.035Z,992.87
2019-01-29T03:39:31.022Z,992.87
2019-01-29T03:40:31.039Z,992.91
2019-01-29T03:41:31.010Z,992.95
2019-01-29T03:42:30.996Z,992.99
2019-01-29T03:43:30.985Z,992.96
2019-01-29T03:44:30.976Z,993.03
2019-01-29T03:45:30.971Z,993.02
2019-01-29T03:46:30.980Z,993.04
2019-01-29T03:47:30.952Z,993.05
2019-01-29T03:48:30.930Z,993.00
2019-01-29T03:49:30.916Z,993.05
2019-01-29T03:50:30.927Z,993.09
2019-01-29T03:51:30.897Z,993.11
2019-01-29T03:52:30.880Z,993.05
2019-01-29T03:53:37.823Z,993.14
2019-01-29T03:54:31.862Z,993.11
2019-01-29T03:55:30.866Z,993.16
2019-01-29T03:56:30.877Z,993.22
2019-01-29T03:57:30.834Z,993.19
2019-01-29T03:58:30.812Z,993.23
2019-01-29T03:59:30.811Z,993.21
2019-01-29T04:00:30.804Z,993.23
2019-01-29T04:01:30.808Z,993.26
2019-01-29T04:02:30.785Z,993.29
2019-01-29T04:03:30.765Z,993.35
2019-01-29T04:04:30.747Z,993.30
2019-01-29T04:05:30.775Z,993.37
2019-01-29T04:06:30.754Z,993.34
2019-01-29T04:07:30.741Z,993.41
2019-01-29T04:08:30.726Z,993.38
2019-01-29T04:09:30.701Z,993.37
2019-01-29T04:10:30.688Z,993.34
2019-01-29T04:11:30.698Z,993.44
2019-01-29T04:12:30.688Z,993.43
2019-01-29T04:13:30.660Z,993.51
2019-01-29T04:14:30.659Z,993.50
2019-01-29T04:15:30.632Z,993.38
2019-01-29T04:16:30.657Z,993.48
2019-01-29T04:17:30.633Z,993.48
2019-01-29T04:18:30.620Z,993.46
2019-01-29T04:19:30.598Z,993.50
2019-01-29T04:20:30.586Z,993.59
2019-01-29T04:21:30.601Z,993.55
2019-01-29T04:22:30.564Z,993.58
2019-01-29T04:23:30.558Z,993.58
2019-01-29T04:24:30.555Z,993.62
2019-01-29T04:25:30.542Z,993.68
2019-01-29T04:26:30.523Z,993.69
2019-01-29T04:27:30.537Z,993.77
2019-01-29T04:28:30.507Z,993.85
2019-01-29T04:29:30.506Z,993.84
2019-01-29T04:30:30.480Z,993.83
2019-01-29T04:31:30.475Z,993.84
2019-01-29T04:32:30.481Z,993.81
2019-01-29T04:33:30.439Z,993.87
2019-01-29T04:34:30.430Z,993.87
2019-01-29T04:35:30.416Z,993.93
2019-01-29T04:36:30.447Z,993.88
2019-01-29T04:37:30.400Z,993.86
2019-01-29T04:38:30.404Z,993.91
2019-01-29T04:39:30.382Z,993.85
2019-01-29T04:40:30.395Z,993.91
2019-01-29T04:41:30.387Z,993.91
2019-01-29T04:42:30.341Z,993.93
2019-01-29T04:43:30.336Z,993.95
2019-01-29T04:44:30.323Z,993.96
2019-01-29T04:45:30.319Z,994.00
2019-01-29T04:46:30.311Z,993.98
2019-01-29T04:47:30.308Z,994.03
2019-01-29T04:48:30.295Z,994.03
2019-01-29T04:49:30.275Z,994.03
2019-01-29T04:50:30.262Z,994.04
2019-01-29T04:51:30.269Z,994.07
2019-01-29T04:52:30.319Z,994.05
2019-01-29T04:53:30.227Z,994.08
2019-01-29T04:54:30.255Z,994.11
2019-01-29T04:55:30.207Z,994.09
2019-01-29T04:56:30.213Z,994.05
2019-01-29T04:57:30.190Z,994.08
2019-01-29T04:58:30.198Z,994.08
2019-01-29T04:59:30.186Z,994.07
2019-01-29T05:00:30.167Z,994.13
2019-01-29T05:01:30.144Z,994.15
2019-01-29T05:02:30.133Z,994.17
2019-01-29T05:03:30.147Z,994.21
2019-01-29T05:04:30.114Z,994.17
2019-01-29T05:05:30.098Z,994.19
2019-01-29T05:06:30.090Z,994.25
2019-01-29T05:07:30.072Z,994.19
2019-01-29T05:08:30.100Z,994.21
2019-01-29T05:09:30.075Z,994.19
2019-01-29T05:10:30.055Z,994.22
2019-01-29T05:11:30.051Z,994.22
2019-01-29T05:12:30.040Z,994.24
2019-01-29T05:13:30.007Z,994.28
2019-01-29T05:14:30.096Z,994.34
2019-01-29T05:15:29.981Z,994.34
2019-01-29T05:16:29.989Z,994.29
2019-01-29T05:17:29.968Z,994.31
2019-01-29T05:18:31.932Z,994.32
2019-01-29T05:19:29.946Z,994.35
2019-01-29T05:20:29.965Z,994.39
2019-01-29T05:21:29.944Z,994.45
2019-01-29T05:22:29.923Z,994.43
2019-01-29T05:23:29.913Z,994.42
2019-01-29T05:24:29.920Z,994.41
2019-01-29T05:25:29.904Z,994.48
2019-01-29T05:26:29.872Z,994.49
2019-01-29T05:27:29.879Z,994.54
2019-01-29T05:28:29.946Z,994.55
2019-01-29T05:29:29.868Z,994.54
2019-01-29T05:30:29.836Z,994.55
2019-01-29T05:31:29.828Z,994.53
2019-01-29T05:32:29.814Z,994.57
2019-01-29T05:33:29.794Z,994.61
2019-01-29T05:34:29.799Z,994.56
2019-01-29T05:35:29.788Z,994.60
2019-01-29T05:36:29.770Z,994.58
2019-01-29T05:37:29.749Z,994.59
2019-01-29T05:38:29.741Z,994.62
2019-01-29T05:39:29.768Z,994.60
2019-01-29T05:40:29.724Z,994.59
2019-01-29T05:41:29.719Z,994.61
2019-01-29T05:42:29.712Z,994.65
2019-01-29T05:43:29.709Z,994.57
2019-01-29T05:44:29.688Z,994.67
2019-01-29T05:45:29.694Z,994.67
2019-01-29T05:46:29.660Z,994.72
2019-01-29T05:47:29.653Z,994.74
2019-01-29T05:48:29.646Z,994.75
2019-01-29T05:49:29.629Z,994.83
2019-01-29T05:50:29.630Z,994.83
2019-01-29T05:51:29.636Z,994.82
2019-01-29T05:52:29.596Z,994.83
2019-01-29T05:53:29.589Z,994.86
2019-01-29T05:54:29.583Z,994.87
2019-01-29T05:55:29.620Z,994.91
2019-01-29T05:56:29.570Z,994.88
2019-01-29T05:57:29.537Z,994.93
2019-01-29T05:58:29.528Z,994.94
2019-01-29T05:59:29.533Z,995.00
2019-01-29T06:00:29.511Z,995.03
2019-01-29T06:01:29.532Z,995.01
2019-01-29T06:02:29.503Z,995.06
2019-01-29T06:03:29.484Z,995.06
2019-01-29T06:04:29.484Z,995.11
2019-01-29T06:05:29.456Z,995.07
2019-01-29T06:06:29.461Z,995.08
2019-01-29T06:07:29.440Z,995.14
2019-01-29T06:08:29.430Z,995.15
2019-01-29T06:09:29.421Z,995.15
2019-01-29T06:10:29.401Z,995.18
2019-01-29T06:11:29.403Z,995.19
2019-01-29T06:12:29.384Z,995.12
2019-01-29T06:13:29.377Z,995.21
2019-01-29T06:14:29.364Z,995.22
2019-01-29T06:15:29.362Z,995.31
2019-01-29T06:16:29.384Z,995.31
2019-01-29T06:17:29.328Z,995.33
2019-01-29T06:18:29.309Z,995.37
2019-01-29T06:19:29.310Z,995.37
2019-01-29T06:20:29.289Z,995.42
2019-01-29T06:21:29.296Z,995.31
2019-01-29T06:22:29.308Z,995.37
2019-01-29T06:23:29.271Z,995.38
2019-01-29T06:24:29.250Z,995.35
2019-01-29T06:25:29.259Z,995.42
2019-01-29T06:26:29.255Z,995.40
2019-01-29T06:27:29.252Z,995.46
2019-01-29T06:28:29.213Z,995.46
2019-01-29T06:29:29.223Z,995.49
2019-01-29T06:30:29.186Z,995.58
2019-01-29T06:31:29.176Z,995.59
2019-01-29T06:32:29.165Z,995.59
2019-01-29T06:33:29.197Z,995.60
2019-01-29T06:34:29.180Z,995.66
2019-01-29T06:35:29.145Z,995.63
2019-01-29T06:36:29.133Z,995.69
2019-01-29T06:37:29.126Z,995.64
2019-01-29T06:38:29.106Z,995.71
2019-01-29T06:39:29.095Z,995.69
2019-01-29T06:40:29.085Z,995.71
2019-01-29T06:41:29.068Z,995.76
2019-01-29T06:42:29.090Z,995.77
2019-01-29T06:43:29.097Z,995.79
2019-01-29T06:44:29.047Z,995.79
2019-01-29T06:45:29.031Z,995.79
2019-01-29T06:46:29.046Z,995.80
2019-01-29T06:47:29.026Z,995.79
2019-01-29T06:48:29.004Z,995.82
2019-01-29T06:49:29.015Z,995.84
2019-01-29T06:50:28.976Z,995.86
2019-01-29T06:51:28.977Z,995.89
2019-01-29T06:52:28.963Z,995.92
2019-01-29T06:53:28.945Z,995.91
2019-01-29T06:54:34.223Z,995.91
2019-01-29T06:55:29.946Z,995.91
2019-01-29T06:56:28.986Z,995.98
2019-01-29T06:57:28.905Z,996.00
2019-01-29T06:58:28.922Z,996.04
2019-01-29T06:59:28.928Z,996.04
2019-01-29T07:00:28.879Z,996.07
2019-01-29T07:01:28.856Z,996.08
2019-01-29T07:02:28.882Z,996.02
2019-01-29T07:03:28.838Z,996.10
2019-01-29T07:04:28.833Z,996.12
2019-01-29T07:05:28.855Z,996.16
2019-01-29T07:06:28.803Z,996.13
2019-01-29T07:07:28.801Z,996.21
2019-01-29T07:08:28.795Z,996.21
2019-01-29T07:09:28.773Z,996.18
2019-01-29T07:10:28.780Z,996.29
2019-01-29T07:11:28.755Z,996.21
2019-01-29T07:12:28.776Z,996.26
2019-01-29T07:13:28.723Z,996.27
2019-01-29T07:14:28.737Z,996.27
2019-01-29T07:15:28.708Z,996.28
2019-01-29T07:16:28.704Z,996.34
2019-01-29T07:17:28.726Z,996.30
2019-01-29T07:18:28.679Z,996.27
2019-01-29T07:19:28.702Z,996.31
2019-01-29T07:20:28.692Z,996.32
2019-01-29T07:21:28.636Z,996.29
2019-01-29T07:22:28.629Z,996.35
2019-01-29T07:23:28.621Z,996.36
2019-01-29T07:24:28.638Z,996.34
2019-01-29T07:25:28.648Z,996.36
2019-01-29T07:26:28.595Z,996.39
2019-01-29T07:27:28.577Z,996.41
2019-01-29T07:28:28.567Z,996.37
2019-01-29T07:29:28.594Z,996.43
2019-01-29T07:30:30.730Z,996.49
2019-01-29T07:31:28.591Z,996.49
2019-01-29T07:32:28.597Z,996.46
2019-01-29T07:33:29.449Z,996.51
2019-01-29T07:34:28.496Z,996.48
2019-01-29T07:35:28.550Z,996.48
2019-01-29T07:36:28.507Z,996.44
2019-01-29T07:37:28.480Z,996.57
2019-01-29T07:38:28.489Z,996.50
2019-01-29T07:39:28.482Z,996.55
2019-01-29T07:40:28.445Z,996.54
2019-01-29T07:41:28.426Z,996.50
2019-01-29T07:42:28.443Z,996.53
2019-01-29T07:43:28.495Z,996.48
2019-01-29T07:44:28.952Z,996.52
2019-01-29T07:45:28.403Z,996.55
2019-01-29T07:46:28.983Z,996.61
2019-01-29T07:47:28.570Z,996.58
2019-01-29T07:48:28.352Z,996.59
2019-01-29T07:49:28.583Z,996.62
2019-01-29T07:50:28.431Z,996.54
2019-01-29T07:51:28.332Z,996.53
2019-01-29T07:52:28.354Z,996.55
2019-01-29T07:53:28.299Z,996.55
2019-01-29T07:54:33.253Z,996.61
2019-01-29T07:55:29.280Z,996.63
2019-01-29T07:56:28.375Z,996.64
2019-01-29T07:57:28.254Z,996.62
2019-01-29T07:58:28.549Z,996.67
2019-01-29T07:59:33.065Z,996.69
2019-01-29T08:00:29.226Z,996.70
2019-01-29T08:01:28.216Z,996.68
2019-01-29T08:02:28.206Z,996.69
2019-01-29T08:03:28.221Z,996.72
2019-01-29T08:04:28.191Z,996.69
2019-01-29T08:05:28.168Z,996.69
2019-01-29T08:06:28.161Z,996.74
2019-01-29T08:07:28.158Z,996.76
2019-01-29T08:08:28.167Z,996.70
2019-01-29T08:09:28.152Z,996.78
2019-01-29T08:10:28.126Z,996.75
2019-01-29T08:11:28.118Z,996.80
2019-01-29T08:12:28.099Z,996.73
2019-01-29T08:13:28.542Z,996.79
2019-01-29T08:14:28.065Z,996.71
2019-01-29T08:15:28.066Z,996.81
2019-01-29T08:16:28.056Z,996.80
2019-01-29T08:17:28.034Z,996.85
2019-01-29T08:18:28.050Z,996.83
2019-01-29T08:19:28.024Z,996.88
2019-01-29T08:20:28.016Z,996.93
2019-01-29T08:21:27.999Z,996.91
2019-01-29T08:22:27.994Z,996.91
2019-01-29T08:23:27.995Z,996.93
2019-01-29T08:24:27.965Z,996.90
2019-01-29T08:25:27.957Z,996.94
2019-01-29T08:26:27.934Z,997.01
2019-01-29T08:27:27.925Z,996.96
2019-01-29T08:28:27.944Z,997.00
2019-01-29T08:29:27.917Z,997.05
2019-01-29T08:30:27.900Z,997.02
2019-01-29T08:31:27.889Z,997.06
2019-01-29T08:32:27.876Z,997.09
2019-01-29T08:33:27.910Z,997.15
2019-01-29T08:34:27.859Z,997.16
2019-01-29T08:35:27.855Z,997.17
2019-01-29T08:36:27.844Z,997.18
2019-01-29T08:37:27.820Z,997.15
2019-01-29T08:38:27.804Z,997.19
2019-01-29T08:39:27.817Z,997.20
2019-01-29T08:40:27.787Z,997.23
2019-01-29T08:41:27.787Z,997.22
2019-01-29T08:42:27.769Z,997.19
2019-01-29T08:43:27.767Z,997.25
2019-01-29T08:44:27.792Z,997.26
2019-01-29T08:45:27.738Z,997.25
2019-01-29T08:46:27.719Z,997.29
2019-01-29T08:47:27.721Z,997.26
2019-01-29T08:48:27.711Z,997.26
2019-01-29T08:49:27.693Z,997.23
2019-01-29T08:50:27.697Z,997.19
2019-01-29T08:51:27.688Z,997.25
2019-01-29T08:52:27.676Z,997.26
2019-01-29T08:53:27.662Z,997.26
2019-01-29T08:54:27.649Z,997.26
2019-01-29T08:55:27.655Z,997.29
2019-01-29T08:56:27.623Z,997.28
2019-01-29T08:57:27.602Z,997.26
2019-01-29T08:58:27.601Z,997.34
2019-01-29T08:59:27.578Z,997.29
2019-01-29T09:00:27.598Z,997.35
2019-01-29T09:01:27.561Z,997.38
2019-01-29T09:02:27.560Z,997.40
2019-01-29T09:03:27.536Z,997.37
2019-01-29T09:04:27.541Z,997.38
2019-01-29T09:05:27.522Z,997.38
2019-01-29T09:06:27.557Z,997.35
2019-01-29T09:07:27.504Z,997.42
2019-01-29T09:08:27.504Z,997.41
2019-01-29T09:09:27.496Z,997.41
2019-01-29T09:10:27.477Z,997.36
2019-01-29T09:11:27.456Z,997.44
2019-01-29T09:12:27.437Z,997.42
2019-01-29T09:13:27.442Z,997.43
2019-01-29T09:14:27.466Z,997.41
2019-01-29T09:15:27.424Z,997.38
2019-01-29T09:16:27.429Z,997.40
2019-01-29T09:17:27.387Z,997.33
2019-01-29T09:18:27.367Z,997.42
2019-01-29T09:19:27.371Z,997.42
2019-01-29T09:20:27.356Z,997.47
2019-01-29T09:21:27.351Z,997.46
2019-01-29T09:22:27.357Z,997.47
2019-01-29T09:23:27.321Z,997.49
2019-01-29T09:24:27.308Z,997.49
2019-01-29T09:25:27.302Z,997.52
2019-01-29T09:26:27.319Z,997.53
2019-01-29T09:27:27.355Z,997.55
2019-01-29T09:28:27.272Z,997.57
2019-01-29T09:29:27.252Z,997.58
2019-01-29T09:30:27.238Z,997.58
2019-01-29T09:31:27.225Z,997.61
2019-01-29T09:32:27.224Z,997.66
2019-01-29T09:33:27.233Z,997.61
2019-01-29T09:34:27.209Z,997.65
2019-01-29T09:35:27.197Z,997.64
2019-01-29T09:36:27.174Z,997.69
2019-01-29T09:37:27.167Z,997.59
2019-01-29T09:38:27.191Z,997.60
2019-01-29T09:39:27.166Z,997.61
2019-01-29T09:40:27.139Z,997.61
2019-01-29T09:41:27.138Z,997.55
2019-01-29T09:42:27.110Z,997.56
2019-01-29T09:43:27.125Z,997.59
2019-01-29T09:44:27.100Z,997.58
2019-01-29T09:45:27.084Z,997.60
2019-01-29T09:46:27.074Z,997.64
2019-01-29T09:47:27.064Z,997.65
2019-01-29T09:48:27.129Z,997.63
2019-01-29T09:49:27.036Z,997.63
2019-01-29T09:50:27.030Z,997.62
2019-01-29T09:51:27.028Z,997.66
2019-01-29T09:52:27.026Z,997.68
2019-01-29T09:53:26.997Z,997.72
2019-01-29T09:54:27.002Z,997.67
2019-01-29T09:55:29.354Z,997.70
2019-01-29T09:56:26.965Z,997.62
2019-01-29T09:57:26.956Z,997.63
2019-01-29T09:58:26.953Z,997.64
2019-01-29T09:59:26.973Z,997.65
2019-01-29T10:00:26.964Z,997.72
2019-01-29T10:01:26.904Z,997.71
2019-01-29T10:02:26.893Z,997.72
2019-01-29T10:03:26.885Z,997.69
2019-01-29T10:04:26.869Z,997.71
2019-01-29T10:05:26.897Z,997.72
2019-01-29T10:06:26.869Z,997.72
2019-01-29T10:07:26.836Z,997.66
2019-01-29T10:08:26.825Z,997.76
2019-01-29T10:09:26.838Z,997.68
2019-01-29T10:10:26.814Z,997.74
2019-01-29T10:11:28.583Z,997.75
2019-01-29T10:12:26.794Z,997.74
2019-01-29T10:13:26.773Z,997.75
2019-01-29T10:14:26.768Z,997.73
2019-01-29T10:15:26.762Z,997.73
2019-01-29T10:16:26.815Z,997.75
2019-01-29T10:17:26.733Z,997.72
2019-01-29T10:18:26.729Z,997.73
2019-01-29T10:19:26.719Z,997.73
2019-01-29T10:20:26.704Z,997.77
2019-01-29T10:21:26.745Z,997.72
2019-01-29T10:22:26.677Z,997.69
2019-01-29T10:23:26.703Z,997.73
2019-01-29T10:24:26.678Z,997.70
2019-01-29T10:25:26.642Z,997.75
2019-01-29T10:26:26.628Z,997.74
2019-01-29T10:27:26.638Z,997.81
2019-01-29T10:28:26.607Z,997.77
2019-01-29T10:29:26.610Z,997.71
2019-01-29T10:30:26.636Z,997.67
2019-01-29T10:31:26.594Z,997.66
2019-01-29T10:32:26.591Z,997.65
2019-01-29T10:33:26.555Z,997.65
2019-01-29T10:34:26.541Z,997.67
2019-01-29T10:35:26.531Z,997.72
2019-01-29T10:36:26.551Z,997.67
2019-01-29T10:37:26.519Z,997.69
2019-01-29T10:38:26.509Z,997.65
2019-01-29T10:39:26.483Z,997.65
2019-01-29T10:40:26.482Z,997.66
2019-01-29T10:41:26.471Z,997.66
2019-01-29T10:42:26.507Z,997.68
2019-01-29T10:43:26.463Z,997.63
2019-01-29T10:44:26.447Z,997.63
2019-01-29T10:45:26.427Z,997.68
2019-01-29T10:46:26.412Z,997.64
2019-01-29T10:47:26.428Z,997.59
2019-01-29T10:48:26.396Z,997.69
2019-01-29T10:49:26.389Z,997.67
2019-01-29T10:50:26.378Z,997.63
2019-01-29T10:51:26.364Z,997.69
2019-01-29T10:52:26.390Z,997.66
2019-01-29T10:53:26.330Z,997.57
2019-01-29T10:54:26.334Z,997.67
2019-01-29T10:55:26.328Z,997.61
2019-01-29T10:56:26.311Z,997.60
2019-01-29T10:57:26.330Z,997.64
2019-01-29T10:58:26.288Z,997.63
2019-01-29T10:59:26.268Z,997.65
2019-01-29T11:00:26.258Z,997.69
2019-01-29T11:01:26.268Z,997.65
2019-01-29T11:02:26.250Z,997.66
2019-01-29T11:03:26.319Z,997.67
2019-01-29T11:04:26.218Z,997.66
2019-01-29T11:05:26.207Z,997.64
2019-01-29T11:06:26.185Z,997.61
2019-01-29T11:07:26.204Z,997.60
2019-01-29T11:08:26.180Z,997.63
2019-01-29T11:09:26.169Z,997.68
2019-01-29T11:10:26.169Z,997.65
2019-01-29T11:11:26.140Z,997.62
2019-01-29T11:12:26.128Z,997.62
2019-01-29T11:13:26.147Z,997.60
2019-01-29T11:14:27.055Z,997.62
2019-01-29T11:15:26.114Z,997.57
2019-01-29T11:16:26.087Z,997.66
2019-01-29T11:17:26.089Z,997.66
2019-01-29T11:18:26.099Z,997.71
2019-01-29T11:19:26.083Z,997.76
2019-01-29T11:20:26.037Z,997.77
2019-01-29T11:21:26.042Z,997.71
2019-01-29T11:22:26.023Z,997.67
2019-01-29T11:23:26.017Z,997.73
2019-01-29T11:24:26.006Z,997.70
2019-01-29T11:25:26.017Z,997.70
2019-01-29T11:26:25.975Z,997.66
2019-01-29T11:27:25.974Z,997.70
2019-01-29T11:28:25.962Z,997.71
2019-01-29T11:29:25.955Z,997.73
2019-01-29T11:30:25.951Z,997.71
2019-01-29T11:31:25.923Z,997.68
2019-01-29T11:32:25.918Z,997.73
2019-01-29T11:33:25.961Z,997.69
2019-01-29T11:34:25.894Z,997.68
2019-01-29T11:35:25.905Z,997.67
2019-01-29T11:36:25.917Z,997.70
2019-01-29T11:37:25.855Z,997.63
2019-01-29T11:38:25.848Z,997.67
2019-01-29T11:39:25.830Z,997.68
2019-01-29T11:40:25.855Z,997.68
2019-01-29T11:41:25.832Z,997.67
2019-01-29T11:42:25.846Z,997.64
2019-01-29T11:43:25.785Z,997.72
2019-01-29T11:44:25.782Z,997.67
2019-01-29T11:45:25.774Z,997.67
2019-01-29T11:46:25.773Z,997.66
2019-01-29T11:47:25.785Z,997.63
2019-01-29T11:48:25.744Z,997.67
2019-01-29T11:49:25.722Z,997.72
2019-01-29T11:50:25.724Z,997.79
2019-01-29T11:51:25.698Z,997.77
2019-01-29T11:52:25.705Z,997.73
2019-01-29T11:53:25.723Z,997.76
2019-01-29T11:54:25.681Z,997.76
2019-01-29T11:55:25.670Z,997.79
2019-01-29T11:56:25.655Z,997.73
2019-01-29T11:57:25.649Z,997.78
2019-01-29T11:58:25.621Z,997.75
2019-01-29T11:59:25.640Z,997.82
2019-01-29T12:00:25.609Z,997.75
2019-01-29T12:01:25.596Z,997.80
2019-01-29T12:02:28.501Z,997.80
2019-01-29T12:03:25.578Z,997.74
2019-01-29T12:04:25.582Z,997.77
2019-01-29T12:05:25.564Z,997.75
2019-01-29T12:06:25.546Z,997.79
2019-01-29T12:07:25.553Z,997.74
2019-01-29T12:08:25.525Z,997.79
2019-01-29T12:09:25.531Z,997.75
2019-01-29T12:10:25.493Z,997.78
2019-01-29T12:11:25.486Z,997.80
2019-01-29T12:12:25.474Z,997.80
2019-01-29T12:13:25.503Z,997.84
2019-01-29T12:14:25.492Z,997.80
2019-01-29T12:15:25.447Z,997.83
2019-01-29T12:16:25.435Z,997.90
2019-01-29T12:17:25.431Z,997.82
2019-01-29T12:18:25.417Z,997.84
2019-01-29T12:19:25.407Z,997.79
2019-01-29T12:20:25.426Z,997.87
2019-01-29T12:21:25.370Z,997.86
2019-01-29T12:22:25.365Z,997.88
2019-01-29T12:23:25.353Z,997.89
2019-01-29T12:24:25.347Z,997.86
2019-01-29T12:25:25.373Z,997.85
2019-01-29T12:26:25.344Z,997.85
2019-01-29T12:27:25.325Z,997.84
2019-01-29T12:28:25.320Z,997.83